Time;durP1;ratioP1;P1;durP2;ratioP2;P2;SDS_P1;SDS_P2;PMS_P1;PMS_P2;Temp;Humidity;BMP_temperature;BMP_pressure;BME280_temperature;BME280_humidity;BME280_pressure;Samples;Min_cycle;Max_cycle;Signal;HPM_P1;HPM_P2
2023/05/15 00:02:01;;;;;;;1.93;1.83;;;23.60;63.80;;;;;;5031241;28;20482;-69
2023/05/15 00:04:29;;;;;;;1.70;1.60;;;23.60;63.80;;;;;;5033876;28;20480;-70
2023/05/15 00:06:57;;;;;;;2.67;1.70;;;23.60;63.90;;;;;;5035725;28;20473;-69
2023/05/15 00:09:25;;;;;;;1.80;1.70;;;23.60;63.90;;;;;;5030297;28;20450;-69
2023/05/15 00:11:54;;;;;;;1.63;1.53;;;23.60;63.80;;;;;;5035566;28;20494;-69
2023/05/15 00:14:24;;;;;;;2.33;1.90;;;23.60;63.80;;;;;;5039864;28;20827;-69
2023/05/15 00:16:52;;;;;;;1.70;1.60;;;23.60;63.80;;;;;;5035910;28;20971;-69
2023/05/15 00:19:20;;;;;;;1.70;1.60;;;23.60;63.90;;;;;;5032838;28;20881;-69
2023/05/15 00:21:48;;;;;;;1.50;1.47;;;23.50;63.90;;;;;;5037170;28;20456;-69
2023/05/15 00:24:16;;;;;;;2.13;1.80;;;23.50;63.90;;;;;;5035580;28;20546;-69
2023/05/15 00:26:45;;;;;;;2.37;2.27;;;23.60;63.90;;;;;;5043971;28;20509;-69
2023/05/15 00:29:13;;;;;;;2.40;1.90;;;23.50;63.90;;;;;;5052417;28;20450;-69
2023/05/15 00:31:42;;;;;;;1.80;1.70;;;23.50;63.90;;;;;;5034030;28;20465;-69
2023/05/15 00:34:11;;;;;;;1.90;1.80;;;23.50;63.90;;;;;;5053948;28;20448;-69
2023/05/15 00:36:39;;;;;;;1.93;1.80;;;23.50;63.90;;;;;;5052524;28;21306;-69
2023/05/15 00:39:07;;;;;;;2.10;1.97;;;23.50;63.90;;;;;;5046406;28;20479;-70
2023/05/15 00:41:36;;;;;;;1.70;1.60;;;23.50;63.90;;;;;;5051501;28;20552;-69
2023/05/15 00:44:06;;;;;;;1.63;1.53;;;23.50;63.90;;;;;;5056597;28;20901;-69
2023/05/15 00:46:36;;;;;;;2.07;1.93;;;23.50;63.90;;;;;;5054635;28;20545;-69
2023/05/15 00:49:12;;;;;;;1.83;1.73;;;23.50;63.90;;;;;;5048463;28;20820;-68
2023/05/15 00:51:41;;;;;;;2.13;1.97;;;23.50;63.90;;;;;;5053462;28;20533;-69
2023/05/15 00:54:10;;;;;;;1.63;1.53;;;23.50;63.90;;;;;;5051870;28;20464;-69
2023/05/15 00:56:39;;;;;;;3.50;2.53;;;23.50;63.90;;;;;;5053592;28;20462;-69
2023/05/15 00:59:08;;;;;;;2.67;1.97;;;23.50;63.90;;;;;;5052245;28;20482;-69
2023/05/15 01:01:36;;;;;;;2.20;2.10;;;23.50;63.90;;;;;;5050565;28;20809;-69
2023/05/15 01:04:06;;;;;;;1.60;1.50;;;23.50;63.90;;;;;;5046833;28;20474;-69
2023/05/15 01:06:34;;;;;;;1.80;1.70;;;23.50;63.90;;;;;;5052038;28;20455;-69
2023/05/15 01:09:04;;;;;;;1.70;1.60;;;23.50;63.90;;;;;;5049832;28;20565;-69
2023/05/15 01:11:37;;;;;;;1.80;1.70;;;23.50;63.90;;;;;;5054345;28;20467;-68
2023/05/15 01:14:08;;;;;;;2.07;1.90;;;23.50;63.90;;;;;;5051797;28;20456;-69
2023/05/15 01:16:37;;;;;;;1.67;1.57;;;23.50;63.90;;;;;;5049111;28;20488;-69
2023/05/15 01:19:07;;;;;;;1.57;1.50;;;23.50;63.90;;;;;;5051526;28;20449;-69
2023/05/15 01:22:19;;;;;;;1.90;1.80;;;23.50;63.90;;;;;;5052294;28;20464;-69
2023/05/15 01:25:11;;;;;;;2.07;1.97;;;23.50;63.90;;;;;;5050462;28;20570;-70
2023/05/15 01:27:48;;;;;;;1.30;1.30;;;23.40;63.90;;;;;;5050480;28;20984;-69
2023/05/15 01:30:22;;;;;;;1.90;1.80;;;23.50;63.90;;;;;;5055342;28;21016;-69
2023/05/15 01:32:55;;;;;;;1.90;1.80;;;23.40;63.90;;;;;;5053711;28;20559;-70
2023/05/15 01:35:31;;;;;;;1.80;1.70;;;23.40;63.90;;;;;;5051874;28;21557;-69
2023/05/15 01:38:07;;;;;;;1.67;1.57;;;23.40;63.90;;;;;;5057287;28;20545;-69
2023/05/15 01:40:36;;;;;;;2.30;2.10;;;23.40;63.90;;;;;;5033333;28;20525;-69
2023/05/15 01:43:08;;;;;;;2.07;1.97;;;23.40;63.90;;;;;;5048273;28;20483;-69
2023/05/15 01:45:37;;;;;;;1.60;1.50;;;23.40;63.90;;;;;;5057228;28;20506;-69
2023/05/15 01:48:08;;;;;;;1.90;1.80;;;23.40;63.90;;;;;;5052074;28;20621;-69
2023/05/15 01:50:39;;;;;;;1.60;1.50;;;23.40;63.90;;;;;;5049761;28;20463;-69
2023/05/15 01:53:09;;;;;;;1.50;1.40;;;23.40;63.90;;;;;;5054911;28;20578;-69
2023/05/15 01:55:38;;;;;;;2.50;2.30;;;23.40;63.90;;;;;;5054608;28;20458;-69
2023/05/15 01:58:09;;;;;;;1.80;1.70;;;23.40;63.90;;;;;;5030255;28;20463;-69
2023/05/15 02:00:39;;;;;;;1.60;1.50;;;23.40;63.90;;;;;;5051491;28;20460;-69
2023/05/15 02:03:08;;;;;;;2.27;2.03;;;23.40;63.90;;;;;;5035769;28;20964;-69
2023/05/15 02:05:38;;;;;;;2.53;2.37;;;23.40;63.90;;;;;;5048561;28;20566;-69
2023/05/15 02:08:07;;;;;;;1.77;1.67;;;23.40;63.90;;;;;;5056066;28;20463;-70
2023/05/15 02:10:36;;;;;;;3.93;1.87;;;23.40;63.90;;;;;;5059313;28;20470;-69
2023/05/15 02:13:05;;;;;;;1.70;1.60;;;23.40;63.90;;;;;;5041679;28;20462;-69
2023/05/15 02:15:36;;;;;;;2.10;2.00;;;23.40;63.90;;;;;;5062161;28;20558;-69
2023/05/15 02:18:05;;;;;;;2.20;2.10;;;23.30;63.90;;;;;;5059231;28;21054;-69
2023/05/15 02:20:33;;;;;;;2.20;2.00;;;23.30;63.90;;;;;;5051295;28;20521;-69
2023/05/15 02:23:02;;;;;;;2.17;2.00;;;23.30;63.90;;;;;;5036122;28;20503;-69
2023/05/15 02:25:38;;;;;;;1.90;1.80;;;23.30;63.90;;;;;;5051369;28;20871;-69
2023/05/15 02:28:17;;;;;;;1.97;1.87;;;23.30;64.00;;;;;;5062510;28;21332;-68
2023/05/15 02:30:55;;;;;;;2.33;2.13;;;23.30;63.90;;;;;;5056302;28;20450;-69
2023/05/15 02:33:31;;;;;;;2.40;2.20;;;23.30;64.00;;;;;;5063257;28;20459;-69
2023/05/15 02:36:05;;;;;;;2.07;1.97;;;23.30;64.00;;;;;;5055303;28;20485;-68
2023/05/15 02:38:36;;;;;;;1.90;1.80;;;23.30;63.90;;;;;;5065603;28;20539;-69
2023/05/15 02:41:06;;;;;;;2.20;2.10;;;23.30;63.90;;;;;;5053757;28;20481;-69
2023/05/15 02:43:36;;;;;;;2.17;2.07;;;23.30;64.10;;;;;;5037542;28;20504;-69
2023/05/15 02:46:07;;;;;;;2.10;2.00;;;23.30;64.10;;;;;;5034343;28;20514;-69
2023/05/15 02:48:37;;;;;;;2.20;2.10;;;23.30;64.10;;;;;;5034359;28;20505;-69
2023/05/15 02:51:06;;;;;;;2.10;1.80;;;23.30;64.10;;;;;;5053081;28;20509;-69
2023/05/15 02:53:38;;;;;;;1.90;1.80;;;23.30;64.10;;;;;;5066091;28;20829;-70
2023/05/15 02:56:07;;;;;;;1.70;1.60;;;23.20;64.10;;;;;;5056137;28;20456;-70
2023/05/15 02:58:36;;;;;;;1.90;1.80;;;23.20;64.10;;;;;;5055054;28;20849;-69
2023/05/15 03:01:06;;;;;;;1.70;1.60;;;23.20;64.10;;;;;;5042326;28;20462;-69
2023/05/15 03:03:34;;;;;;;1.87;1.77;;;23.20;64.10;;;;;;5036798;28;20455;-70
2023/05/15 03:06:03;;;;;;;2.13;2.03;;;23.20;64.10;;;;;;5051431;28;20471;-69
2023/05/15 03:08:31;;;;;;;2.43;2.30;;;23.20;64.10;;;;;;5048252;28;20454;-69
2023/05/15 03:10:59;;;;;;;1.90;1.80;;;23.20;64.10;;;;;;5077563;28;20492;-69
2023/05/15 03:13:27;;;;;;;2.30;2.20;;;23.20;64.10;;;;;;5069991;28;20976;-69
2023/05/15 03:15:55;;;;;;;2.10;2.00;;;23.20;64.10;;;;;;5061796;28;20463;-70
2023/05/15 03:18:25;;;;;;;2.00;1.90;;;23.20;64.10;;;;;;5052147;28;20460;-69
2023/05/15 03:20:53;;;;;;;1.77;1.67;;;23.20;64.10;;;;;;5036276;28;20479;-69
2023/05/15 03:23:22;;;;;;;2.00;1.90;;;23.20;64.10;;;;;;5033392;28;20531;-69
2023/05/15 03:25:50;;;;;;;2.07;1.97;;;23.20;64.10;;;;;;5032746;28;20506;-70
2023/05/15 03:28:18;;;;;;;2.40;2.20;;;23.20;64.10;;;;;;5051065;28;20503;-69
2023/05/15 03:30:46;;;;;;;1.93;1.83;;;23.10;64.10;;;;;;5063378;28;20465;-69
2023/05/15 03:33:14;;;;;;;2.37;2.17;;;23.10;64.10;;;;;;5052651;28;20450;-70
2023/05/15 03:35:44;;;;;;;1.87;1.77;;;23.10;64.10;;;;;;5070769;28;20538;-69
2023/05/15 03:38:12;;;;;;;2.13;2.03;;;23.10;64.10;;;;;;5069144;28;20546;-69
2023/05/15 03:40:40;;;;;;;1.73;1.63;;;23.10;64.10;;;;;;5069853;28;20464;-69
2023/05/15 03:43:09;;;;;;;2.30;2.20;;;23.10;64.10;;;;;;5069595;28;20926;-69
2023/05/15 03:45:37;;;;;;;2.47;2.37;;;23.10;64.10;;;;;;5071799;28;20903;-69
2023/05/15 03:48:06;;;;;;;2.10;2.00;;;23.10;64.10;;;;;;5057092;28;20473;-69
2023/05/15 03:50:34;;;;;;;1.87;1.77;;;23.10;64.30;;;;;;5072671;28;20549;-69
2023/05/15 03:53:05;;;;;;;2.87;2.30;;;23.10;64.30;;;;;;5073888;28;20437;-68
2023/05/15 03:55:33;;;;;;;2.23;2.13;;;23.10;64.30;;;;;;5074949;28;20453;-69
2023/05/15 03:58:02;;;;;;;2.10;2.00;;;23.10;64.30;;;;;;5053645;28;20521;-70
2023/05/15 04:00:30;;;;;;;3.57;1.77;;;23.20;64.30;;;;;;5062147;28;20553;-69
2023/05/15 04:02:58;;;;;;;1.90;1.80;;;23.20;64.30;;;;;;5069627;28;20562;-69
2023/05/15 04:05:27;;;;;;;2.07;1.87;;;23.20;64.10;;;;;;5074094;28;20554;-69
2023/05/15 04:07:55;;;;;;;2.00;1.90;;;23.20;64.10;;;;;;5073212;28;20530;-68
2023/05/15 04:10:25;;;;;;;2.00;1.90;;;23.30;64.10;;;;;;5073442;28;20447;-69
2023/05/15 04:12:53;;;;;;;2.00;1.90;;;23.30;64.10;;;;;;5071466;28;20545;-69
2023/05/15 04:15:23;;;;;;;2.00;1.90;;;23.30;63.90;;;;;;5065514;28;20489;-69
2023/05/15 04:17:53;;;;;;;2.00;1.90;;;23.30;63.80;;;;;;5071139;28;20460;-69
2023/05/15 04:20:23;;;;;;;2.00;1.87;;;23.40;63.70;;;;;;5073768;28;20443;-69
2023/05/15 04:22:52;;;;;;;2.13;2.00;;;23.40;63.70;;;;;;5069747;28;20959;-69
2023/05/15 04:25:21;;;;;;;2.10;2.00;;;23.40;63.60;;;;;;5082945;28;20479;-69
2023/05/15 04:27:51;;;;;;;5.33;2.40;;;23.40;63.60;;;;;;5072602;28;21075;-69
2023/05/15 04:30:19;;;;;;;2.13;1.87;;;23.40;63.50;;;;;;5070099;28;20536;-69
2023/05/15 04:32:47;;;;;;;2.40;2.30;;;23.40;63.50;;;;;;5078413;28;20509;-69
2023/05/15 04:35:16;;;;;;;2.30;2.20;;;23.40;63.50;;;;;;5070556;28;20941;-69
2023/05/15 04:37:45;;;;;;;2.73;2.53;;;23.40;63.50;;;;;;5074306;28;20459;-69
2023/05/15 04:40:15;;;;;;;2.67;2.50;;;23.40;63.50;;;;;;5072367;28;20527;-69
2023/05/15 04:42:43;;;;;;;2.60;2.50;;;23.40;63.50;;;;;;5060988;28;20522;-69
2023/05/15 04:45:14;;;;;;;3.93;2.00;;;23.40;63.50;;;;;;5072396;28;20475;-69
2023/05/15 04:47:42;;;;;;;3.10;2.87;;;23.40;63.40;;;;;;5073068;28;20809;-70
2023/05/15 04:50:11;;;;;;;2.47;2.27;;;23.40;63.40;;;;;;5078737;28;20438;-70
2023/05/15 04:52:39;;;;;;;2.17;2.07;;;23.30;63.40;;;;;;5051130;28;20466;-70
2023/05/15 04:55:08;;;;;;;2.00;1.90;;;23.30;63.50;;;;;;5073232;28;20542;-70
2023/05/15 04:57:36;;;;;;;2.20;2.00;;;23.30;63.60;;;;;;5077433;28;20495;-69
2023/05/15 05:00:09;;;;;;;3.97;2.70;;;23.30;63.60;;;;;;5060087;28;20457;-69
2023/05/15 05:02:38;;;;;;;2.83;2.63;;;23.30;63.50;;;;;;5061365;28;20485;-69
2023/05/15 05:05:08;;;;;;;2.57;2.37;;;23.30;63.60;;;;;;5067536;28;20526;-69
2023/05/15 05:07:36;;;;;;;2.37;2.23;;;23.30;63.70;;;;;;5073454;28;20457;-69
2023/05/15 05:10:05;;;;;;;2.37;2.17;;;23.30;63.70;;;;;;5071167;28;20468;-69
2023/05/15 05:12:33;;;;;;;2.60;2.50;;;23.30;63.70;;;;;;5046509;28;20472;-70
2023/05/15 05:15:01;;;;;;;2.20;2.00;;;23.30;63.70;;;;;;5061606;28;20543;-70
2023/05/15 05:17:30;;;;;;;2.60;2.40;;;23.30;63.70;;;;;;5042111;28;20468;-70
2023/05/15 05:19:59;;;;;;;2.50;2.23;;;23.20;63.70;;;;;;5063267;28;20977;-70
2023/05/15 05:22:27;;;;;;;2.97;2.77;;;23.20;63.70;;;;;;5068869;28;20538;-70
2023/05/15 05:24:56;;;;;;;2.87;2.60;;;23.20;63.70;;;;;;5068373;28;20507;-70
2023/05/15 05:27:24;;;;;;;2.03;1.93;;;23.20;63.70;;;;;;5065045;28;20511;-70
2023/05/15 05:29:53;;;;;;;2.20;2.00;;;23.20;63.70;;;;;;5053162;28;20498;-70
2023/05/15 05:32:21;;;;;;;2.00;1.80;;;23.20;63.60;;;;;;5053623;28;21324;-70
2023/05/15 05:34:49;;;;;;;1.80;1.70;;;23.20;63.70;;;;;;5073144;28;20462;-70
2023/05/15 05:37:19;;;;;;;2.27;2.17;;;23.20;63.70;;;;;;5073171;28;20510;-70
2023/05/15 05:39:47;;;;;;;2.13;2.03;;;23.20;63.70;;;;;;5064663;28;20870;-70
2023/05/15 05:42:15;;;;;;;2.60;2.40;;;23.20;63.70;;;;;;5062038;28;20468;-70
2023/05/15 05:44:43;;;;;;;2.10;1.83;;;23.20;63.80;;;;;;5055668;28;20451;-70
2023/05/15 05:47:11;;;;;;;2.47;2.27;;;23.20;63.80;;;;;;5060885;28;20981;-71
2023/05/15 05:49:39;;;;;;;2.70;2.33;;;23.20;63.80;;;;;;5063909;28;20452;-70
2023/05/15 05:52:08;;;;;;;2.40;2.20;;;23.30;63.80;;;;;;5064895;28;20447;-70
2023/05/15 05:54:37;;;;;;;2.53;2.43;;;23.30;63.90;;;;;;5074333;28;20450;-70
2023/05/15 05:57:06;;;;;;;2.27;1.83;;;23.30;63.90;;;;;;5069477;28;20506;-70
2023/05/15 05:59:35;;;;;;;2.30;2.10;;;23.30;63.90;;;;;;5069008;28;20445;-70
2023/05/15 06:02:03;;;;;;;3.70;2.23;;;23.30;63.70;;;;;;5069160;28;20481;-70
2023/05/15 06:04:33;;;;;;;2.30;2.10;;;23.30;63.70;;;;;;5070104;28;20459;-70
2023/05/15 06:07:01;;;;;;;2.50;2.30;;;23.30;63.70;;;;;;5077378;28;20467;-70
2023/05/15 06:09:29;;;;;;;3.30;2.37;;;23.30;63.70;;;;;;5071415;28;20715;-69
2023/05/15 06:12:03;;;;;;;3.83;2.20;;;23.40;63.60;;;;;;5068753;28;20463;-69
2023/05/15 06:14:31;;;;;;;2.57;2.00;;;23.30;63.60;;;;;;5070287;28;20443;-70
2023/05/15 06:17:00;;;;;;;2.90;2.70;;;23.40;63.60;;;;;;5074315;28;20570;-70
2023/05/15 06:19:29;;;;;;;2.40;2.20;;;23.40;63.50;;;;;;5055979;28;20458;-69
2023/05/15 06:21:57;;;;;;;2.17;2.03;;;23.40;63.50;;;;;;5070744;28;20493;-70
2023/05/15 06:24:25;;;;;;;4.77;2.30;;;23.40;63.50;;;;;;5075710;28;20465;-69
2023/05/15 06:26:54;;;;;;;3.90;2.20;;;23.40;63.50;;;;;;5075450;28;20503;-69
2023/05/15 06:29:23;;;;;;;2.27;2.07;;;23.40;63.50;;;;;;5065077;28;20490;-69
2023/05/15 06:31:51;;;;;;;1.90;1.80;;;23.40;63.50;;;;;;5062845;28;20499;-69
2023/05/15 06:34:20;;;;;;;2.60;2.40;;;23.40;63.40;;;;;;5073531;28;20547;-69
2023/05/15 06:36:48;;;;;;;2.33;2.13;;;23.40;63.50;;;;;;5070987;28;20564;-68
2023/05/15 06:39:16;;;;;;;3.07;1.80;;;23.40;63.50;;;;;;5084153;28;20546;-71
2023/05/15 06:41:45;;;;;;;2.40;2.20;;;23.40;63.50;;;;;;5070045;28;20530;-72
2023/05/15 06:44:13;;;;;;;2.10;1.93;;;23.40;63.50;;;;;;5066287;28;20578;-71
2023/05/15 06:46:42;;;;;;;3.07;2.30;;;23.50;63.50;;;;;;5059123;28;20468;-70
2023/05/15 06:49:11;;;;;;;2.27;2.17;;;23.40;63.50;;;;;;5074936;28;20533;-70
2023/05/15 06:51:39;;;;;;;4.43;2.13;;;23.40;63.60;;;;;;5072158;28;20457;-70
2023/05/15 06:54:07;;;;;;;3.27;2.67;;;23.40;63.60;;;;;;5078975;28;20546;-70
2023/05/15 06:56:35;;;;;;;2.60;2.40;;;23.40;63.70;;;;;;5073577;28;20920;-70
2023/05/15 06:59:04;;;;;;;3.93;3.60;;;23.40;63.70;;;;;;5068731;28;20495;-71
2023/05/15 07:01:32;;;;;;;2.37;2.17;;;23.40;63.70;;;;;;5067820;28;21054;-71
2023/05/15 07:04:02;;;;;;;4.93;2.20;;;23.50;63.70;;;;;;5051106;28;20476;-70
2023/05/15 07:06:31;;;;;;;2.40;2.20;;;23.50;63.80;;;;;;5069611;28;20486;-71
2023/05/15 07:08:59;;;;;;;4.90;2.40;;;23.50;63.80;;;;;;5055214;28;20452;-71
2023/05/15 07:11:28;;;;;;;3.93;2.70;;;23.50;63.80;;;;;;5037167;28;20492;-71
2023/05/15 07:13:56;;;;;;;5.30;3.03;;;23.50;63.80;;;;;;5030221;28;20895;-71
2023/05/15 07:16:24;;;;;;;2.40;2.30;;;23.50;63.80;;;;;;5062875;28;20458;-71
2023/05/15 07:18:52;;;;;;;3.23;3.03;;;23.50;63.80;;;;;;5062806;28;20553;-71
2023/05/15 07:21:22;;;;;;;3.33;1.97;;;23.50;63.80;;;;;;5059574;28;20455;-71
2023/05/15 07:23:50;;;;;;;3.00;2.17;;;23.50;63.70;;;;;;5061285;28;20496;-71
2023/05/15 07:26:18;;;;;;;2.47;1.93;;;23.50;63.70;;;;;;5046063;28;20487;-70
2023/05/15 07:28:59;;;;;;;3.13;2.87;;;23.50;63.70;;;;;;5066585;28;20452;-70
2023/05/15 07:31:28;;;;;;;2.77;2.17;;;23.60;63.70;;;;;;5066190;28;20500;-70
2023/05/15 07:33:56;;;;;;;2.40;2.20;;;23.60;63.70;;;;;;5064995;28;20525;-70
2023/05/15 07:36:25;;;;;;;2.77;2.57;;;23.60;63.70;;;;;;5057687;28;20457;-71
2023/05/15 07:38:54;;;;;;;2.23;1.90;;;23.60;63.70;;;;;;5065812;28;20475;-71
2023/05/15 07:41:22;;;;;;;2.70;2.30;;;23.60;63.70;;;;;;5069437;28;20459;-71
2023/05/15 07:43:50;;;;;;;3.47;2.00;;;23.60;63.60;;;;;;5059370;28;20499;-71
2023/05/15 07:46:18;;;;;;;2.10;2.00;;;23.60;63.60;;;;;;5051652;28;20478;-71
2023/05/15 07:48:46;;;;;;;3.07;2.60;;;23.70;63.60;;;;;;5057341;28;20517;-71
2023/05/15 07:51:15;;;;;;;2.83;2.17;;;23.70;63.60;;;;;;5070811;28;20483;-71
2023/05/15 07:53:44;;;;;;;2.50;2.17;;;23.70;63.50;;;;;;5066722;28;20510;-71
2023/05/15 07:56:12;;;;;;;1.90;1.80;;;23.70;63.50;;;;;;5057994;28;20493;-71
2023/05/15 07:58:40;;;;;;;2.80;2.00;;;23.70;63.50;;;;;;5063748;28;20471;-71
2023/05/15 08:01:09;;;;;;;2.73;2.10;;;23.70;63.50;;;;;;5061648;28;20469;-71
2023/05/15 08:03:37;;;;;;;4.00;3.20;;;23.70;63.50;;;;;;5072452;28;20528;-71
2023/05/15 08:06:07;;;;;;;3.00;2.40;;;23.70;63.50;;;;;;5061497;28;20552;-71
2023/05/15 08:08:35;;;;;;;2.70;2.50;;;23.70;63.60;;;;;;5056345;28;20518;-71
2023/05/15 08:11:04;;;;;;;2.93;1.80;;;23.70;63.50;;;;;;5055800;28;20458;-70
2023/05/15 08:13:33;;;;;;;2.53;2.33;;;23.70;63.50;;;;;;5058711;28;20887;-71
2023/05/15 08:16:01;;;;;;;3.83;3.30;;;23.70;63.50;;;;;;5066810;28;20479;-71
2023/05/15 08:18:29;;;;;;;2.20;2.00;;;23.70;63.50;;;;;;5060383;28;20925;-71
2023/05/15 08:20:57;;;;;;;2.17;2.07;;;23.70;63.50;;;;;;5060691;28;20819;-71
2023/05/15 08:23:25;;;;;;;2.50;2.33;;;23.70;63.50;;;;;;5057086;28;20465;-71
2023/05/15 08:25:53;;;;;;;2.17;1.77;;;23.70;63.50;;;;;;5056171;28;20516;-71
2023/05/15 08:28:23;;;;;;;2.40;2.17;;;23.70;63.40;;;;;;5062483;28;20514;-71
2023/05/15 08:30:51;;;;;;;1.90;1.80;;;23.80;63.40;;;;;;5057432;28;20576;-71
2023/05/15 08:33:19;;;;;;;2.13;2.03;;;23.80;63.40;;;;;;5063174;28;20468;-71
2023/05/15 08:35:48;;;;;;;2.97;2.30;;;23.80;63.40;;;;;;5064754;28;20493;-71
2023/05/15 08:38:16;;;;;;;2.43;2.23;;;23.80;63.30;;;;;;5060830;28;20462;-71
2023/05/15 08:40:47;;;;;;;4.13;2.17;;;23.80;63.30;;;;;;5061645;28;20587;-71
2023/05/15 08:43:17;;;;;;;2.33;2.13;;;23.80;63.30;;;;;;5067428;28;20498;-71
2023/05/15 08:45:47;;;;;;;2.80;1.90;;;23.80;63.30;;;;;;5044685;28;20555;-71
2023/05/15 08:48:19;;;;;;;3.10;2.00;;;23.80;63.30;;;;;;5052365;28;20476;-71
2023/05/15 08:50:48;;;;;;;2.20;1.97;;;23.80;63.30;;;;;;5058928;28;21028;-71
2023/05/15 08:53:17;;;;;;;4.20;2.10;;;23.80;63.30;;;;;;5059152;28;20494;-71
2023/05/15 08:55:46;;;;;;;1.90;1.80;;;23.80;63.30;;;;;;5063329;28;20953;-71
2023/05/15 08:58:15;;;;;;;3.10;2.03;;;23.80;63.30;;;;;;5054727;28;20462;-71
2023/05/15 09:00:44;;;;;;;1.63;1.50;;;23.90;63.20;;;;;;5065862;28;20495;-70
2023/05/15 09:03:18;;;;;;;2.50;2.30;;;23.80;63.20;;;;;;5067200;28;20456;-70
2023/05/15 09:05:51;;;;;;;3.17;2.27;;;23.90;63.20;;;;;;5067409;28;20461;-70
2023/05/15 09:08:22;;;;;;;2.60;2.50;;;23.90;63.20;;;;;;5064036;28;20480;-70
2023/05/15 09:10:53;;;;;;;2.40;2.20;;;23.90;63.20;;;;;;5065826;28;20961;-71
2023/05/15 09:13:21;;;;;;;1.63;1.53;;;23.90;63.20;;;;;;5057710;28;20496;-71
2023/05/15 09:15:50;;;;;;;1.90;1.50;;;23.90;63.20;;;;;;5051386;28;20480;-71
2023/05/15 09:18:20;;;;;;;1.90;1.80;;;23.90;63.20;;;;;;5060898;28;20462;-71
2023/05/15 09:20:48;;;;;;;2.23;1.90;;;23.90;63.20;;;;;;5065516;28;20517;-70
2023/05/15 09:23:24;;;;;;;2.63;2.53;;;23.90;63.20;;;;;;5061349;28;20478;-71
2023/05/15 09:25:55;;;;;;;2.10;2.00;;;23.90;63.20;;;;;;5070615;28;20957;-70
2023/05/15 09:28:29;;;;;;;2.17;2.07;;;23.90;63.10;;;;;;5050633;28;20478;-70
2023/05/15 09:31:01;;;;;;;2.33;2.13;;;23.90;63.10;;;;;;5074535;28;20451;-71
2023/05/15 09:33:32;;;;;;;2.50;1.80;;;23.90;63.10;;;;;;5077200;28;20932;-71
2023/05/15 09:36:01;;;;;;;4.17;1.90;;;23.90;63.10;;;;;;5076738;28;20987;-70
2023/05/15 09:38:32;;;;;;;2.60;2.40;;;23.90;63.10;;;;;;5061755;28;21275;-70
2023/05/15 09:41:05;;;;;;;2.20;2.10;;;23.90;63.10;;;;;;5061528;28;20496;-70
2023/05/15 09:43:34;;;;;;;1.90;1.80;;;24.00;63.10;;;;;;5078466;28;20522;-70
2023/05/15 09:46:04;;;;;;;1.80;1.70;;;24.00;63.00;;;;;;5073261;28;20506;-70
2023/05/15 09:48:35;;;;;;;2.23;2.03;;;24.00;63.00;;;;;;5069243;28;20493;-70
2023/05/15 09:51:06;;;;;;;2.37;2.17;;;24.00;63.00;;;;;;5071325;28;20540;-70
2023/05/15 09:53:37;;;;;;;2.07;1.97;;;24.00;63.00;;;;;;5070256;28;20452;-70
2023/05/15 09:56:05;;;;;;;2.63;2.20;;;24.00;63.00;;;;;;5055379;28;20837;-70
2023/05/15 09:58:35;;;;;;;2.00;1.90;;;24.00;62.90;;;;;;5068475;28;20478;-70
2023/05/15 10:01:10;;;;;;;2.17;2.07;;;24.00;62.90;;;;;;5066697;28;20474;-70
2023/05/15 10:03:42;;;;;;;2.30;2.10;;;24.00;62.90;;;;;;5069053;28;20453;-70
2023/05/15 10:06:18;;;;;;;2.37;2.17;;;24.00;62.90;;;;;;5070819;28;20456;-70
2023/05/15 10:08:52;;;;;;;2.37;2.23;;;24.00;63.00;;;;;;5070793;28;20475;-70
2023/05/15 10:11:21;;;;;;;2.70;1.93;;;24.00;62.90;;;;;;5063715;28;20962;-70
2023/05/15 10:13:49;;;;;;;2.57;2.37;;;24.00;63.00;;;;;;5077521;28;20454;-70
2023/05/15 10:16:20;;;;;;;2.30;2.20;;;24.00;62.90;;;;;;5074289;28;20552;-70
2023/05/15 10:18:51;;;;;;;2.20;2.10;;;24.00;62.90;;;;;;5065187;28;20456;-70
2023/05/15 10:21:21;;;;;;;2.37;2.17;;;24.00;62.80;;;;;;5075268;28;20534;-70
2023/05/15 10:23:51;;;;;;;1.80;1.70;;;24.00;62.80;;;;;;5069158;28;20980;-70
2023/05/15 10:26:24;;;;;;;2.37;2.17;;;24.00;63.00;;;;;;5045650;28;20557;-70
2023/05/15 10:28:54;;;;;;;2.60;2.40;;;24.00;63.00;;;;;;5069930;28;20484;-70
2023/05/15 10:31:24;;;;;;;2.30;2.20;;;24.00;62.90;;;;;;5065454;28;20454;-70
2023/05/15 10:33:55;;;;;;;2.00;1.80;;;24.10;62.90;;;;;;5058503;28;20477;-70
2023/05/15 10:36:24;;;;;;;2.30;2.20;;;24.10;62.90;;;;;;5075357;28;20533;-70
2023/05/15 10:38:53;;;;;;;3.27;2.60;;;24.10;62.80;;;;;;5061137;28;20451;-70
2023/05/15 10:41:23;;;;;;;2.50;2.30;;;24.10;62.80;;;;;;5068187;28;21302;-70
2023/05/15 10:43:54;;;;;;;2.23;2.13;;;24.20;62.80;;;;;;5064174;28;20867;-70
2023/05/15 10:46:23;;;;;;;2.80;2.50;;;24.20;62.70;;;;;;5058792;28;20435;-69
2023/05/15 10:48:52;;;;;;;3.33;2.60;;;24.20;62.70;;;;;;5072722;28;20470;-70
2023/05/15 10:51:27;;;;;;;2.20;2.10;;;24.20;62.70;;;;;;5069970;28;20471;-70
2023/05/15 10:53:57;;;;;;;2.53;2.00;;;24.20;62.60;;;;;;5062089;28;20457;-69
2023/05/15 10:56:30;;;;;;;2.30;2.10;;;24.20;62.60;;;;;;5060611;28;20464;-70
2023/05/15 10:59:05;;;;;;;2.77;2.57;;;24.20;62.60;;;;;;5063998;28;20488;-70
2023/05/15 11:01:35;;;;;;;2.60;2.40;;;24.20;62.60;;;;;;5067625;28;20461;-69
2023/05/15 11:04:09;;;;;;;3.17;2.97;;;24.20;62.60;;;;;;5068701;28;20996;-70
2023/05/15 11:06:40;;;;;;;2.90;2.70;;;24.20;62.70;;;;;;5067987;28;20467;-70
2023/05/15 11:09:36;;;;;;;2.23;2.13;;;24.20;62.70;;;;;;5060439;28;20478;-70
2023/05/15 11:12:06;;;;;;;5.30;2.57;;;24.20;62.70;;;;;;5059150;28;20511;-70
2023/05/15 11:14:39;;;;;;;2.30;2.20;;;24.20;62.90;;;;;;5075126;28;20531;-70
2023/05/15 11:17:09;;;;;;;2.00;1.90;;;24.20;62.70;;;;;;5072260;28;20458;-69
2023/05/15 11:19:53;;;;;;;2.60;2.40;;;24.20;62.70;;;;;;5069861;28;20471;-70
2023/05/15 11:22:29;;;;;;;2.37;2.27;;;24.20;62.70;;;;;;5072754;28;20964;-69
2023/05/15 11:25:01;;;;;;;3.77;2.77;;;24.20;62.80;;;;;;5066159;28;20460;-70
2023/05/15 11:27:32;;;;;;;2.83;2.63;;;24.20;62.80;;;;;;5062771;28;21016;-69
2023/05/15 11:30:09;;;;;;;2.93;2.63;;;24.20;62.80;;;;;;5057062;28;20475;-70
2023/05/15 11:32:56;;;;;;;3.20;2.40;;;24.20;63.00;;;;;;5056562;28;20524;-70
2023/05/15 11:35:28;;;;;;;3.20;2.90;;;24.20;62.80;;;;;;5061549;28;21018;-70
2023/05/15 11:38:00;;;;;;;2.57;2.37;;;24.20;63.00;;;;;;5058572;28;20792;-69
2023/05/15 11:40:29;;;;;;;2.43;2.33;;;24.20;62.90;;;;;;5070959;28;20941;-68
2023/05/15 11:43:08;;;;;;;2.67;2.47;;;24.20;63.00;;;;;;5061787;28;20463;-68
2023/05/15 11:45:40;;;;;;;2.47;2.20;;;24.20;63.10;;;;;;5064270;28;20556;-68
2023/05/15 11:48:15;;;;;;;2.80;2.20;;;24.20;62.90;;;;;;5069386;28;20553;-68
2023/05/15 11:50:44;;;;;;;2.23;2.13;;;24.30;62.80;;;;;;5073870;28;20461;-68
2023/05/15 11:53:14;;;;;;;3.60;2.70;;;24.30;62.80;;;;;;5070778;28;20559;-68
2023/05/15 11:55:44;;;;;;;2.10;2.00;;;24.40;62.50;;;;;;5069831;28;20560;-69
2023/05/15 11:58:15;;;;;;;2.40;2.20;;;24.40;62.50;;;;;;5071847;28;20468;-68
2023/05/15 12:00:44;;;;;;;2.10;2.00;;;24.40;62.40;;;;;;5052808;28;20488;-69
2023/05/15 12:03:17;;;;;;;2.83;2.63;;;24.40;62.40;;;;;;5057750;28;20452;-68
2023/05/15 12:05:45;;;;;;;3.17;2.40;;;24.40;62.40;;;;;;5047356;28;20575;-69
2023/05/15 12:08:31;;;;;;;1.97;1.87;;;24.40;62.50;;;;;;5067268;28;20436;-68
2023/05/15 12:11:00;;;;;;;2.30;2.20;;;24.30;62.40;;;;;;5057726;28;20459;-69
2023/05/15 12:13:29;;;;;;;2.67;2.57;;;24.30;62.50;;;;;;5069006;28;20472;-68
2023/05/15 12:15:57;;;;;;;2.20;2.10;;;24.30;62.50;;;;;;5064830;28;20448;-69
2023/05/15 12:18:26;;;;;;;2.20;2.10;;;24.30;62.50;;;;;;5074322;28;20443;-68
2023/05/15 12:20:56;;;;;;;2.33;2.13;;;24.30;62.50;;;;;;5071171;28;20939;-69
2023/05/15 12:23:26;;;;;;;2.20;2.10;;;24.30;62.50;;;;;;5074193;28;20450;-69
2023/05/15 12:25:59;;;;;;;3.40;3.20;;;24.30;62.50;;;;;;5079863;28;20572;-68
2023/05/15 12:28:28;;;;;;;2.53;2.33;;;24.30;62.50;;;;;;5076184;28;21086;-70
2023/05/15 12:30:58;;;;;;;2.50;2.30;;;24.30;62.50;;;;;;5064883;28;20574;-69
2023/05/15 12:33:27;;;;;;;2.20;2.00;;;24.30;62.50;;;;;;5050880;28;20956;-69
2023/05/15 12:35:57;;;;;;;2.60;2.40;;;24.30;62.50;;;;;;5069392;28;21377;-74
2023/05/15 12:38:29;;;;;;;2.37;2.17;;;24.30;62.60;;;;;;5064919;28;20483;-70
2023/05/15 12:41:00;;;;;;;2.80;2.50;;;24.30;62.80;;;;;;5073686;28;20969;-70
2023/05/15 12:43:31;;;;;;;2.80;2.20;;;24.30;63.00;;;;;;5075052;28;20747;-70
2023/05/15 12:46:00;;;;;;;2.60;2.40;;;24.20;63.10;;;;;;5073889;28;20471;-72
2023/05/15 12:48:31;;;;;;;2.73;2.57;;;24.30;63.20;;;;;;5082692;28;20454;-72
2023/05/15 12:51:06;;;;;;;4.00;2.70;;;24.30;63.30;;;;;;5081658;28;21469;-70
2023/05/15 12:53:38;;;;;;;2.30;2.10;;;24.30;63.30;;;;;;5073457;28;20522;-72
2023/05/15 12:56:09;;;;;;;2.57;2.37;;;24.30;63.30;;;;;;5077049;28;20457;-70
2023/05/15 12:58:39;;;;;;;2.30;2.10;;;24.40;63.50;;;;;;5075958;28;20462;-72
2023/05/15 13:01:07;;;;;;;2.60;2.40;;;24.50;63.30;;;;;;5077686;28;20453;-72
2023/05/15 13:03:36;;;;;;;2.57;2.27;;;24.70;63.10;;;;;;5076295;28;20451;-71